Lincoln, NE

7:23 AM CDT on May 05, 2015 (GMT -0500)
59th & Franklin St. | | Change Station
CLOSE
Current Station
Personal Weather Station
Location: Lincoln, NE
Elevation: 1283 ft
Nearby Weather Stations

Elev 1283 ft 40.79 °N, 96.64 °W | Updated 2 seconds ago

Overcast
Overcast
59.2 °F
Feels Like 59.2 °F
N
0.0
Wind Variable Wind from ESE
Gusts 1.0 mph

Today
High -- | Low -- °F
--% Chance of Precip.
Yesterday
High -- | Low -- °F
Precip. -- in
6:20 AM 8:26 PM
Full, 98% visible
Pressure 30.05 in
Visibility 4.0 miles
Clouds Mostly Cloudy 700 ft
Mostly Cloudy 4400 ft
Overcast 10000 ft
Dew Point 57 °F
Humidity 93%
Rainfall 0.00 in
Snow Depth Not available.
UV 0.0 out of 12
Pollen 4.50 out of 12
Air Quality Not available.
Flu Activity Local Activity
METAR KLNK 051154Z 11004KT 4SM BR BKN007 BKN044 OVC100 16/15 A3006 RMK AO2 SLP176 70007 T01560150 10167 20150 53009

More Conditions Fewer Conditions

Pressure 30.05 in
Visibility 4.0 miles
Clouds Mostly Cloudy 700 ft
Mostly Cloudy 4400 ft
Overcast 10000 ft
Dew Point 57 °F
Humidity 93%
Rainfall 0.00 in
Snow Depth Not available.
UV 0.0 out of 12
Pollen 4.50 out of 12
Air Quality Not available.
Flu Activity Local Activity
METAR KLNK 051154Z 11004KT 4SM BR BKN007 BKN044 OVC100 16/15 A3006 RMK AO2 SLP176 70007 T01560150 10167 20150 53009

More Conditions Fewer Conditions

Nepal has a long way to go to dig out and rebuild from a devastating earthquake. We have teamed up with several charities and organizations to make contributing to the relief effort as easy as possible.
How you can help: Portlight Strategies | Red Cross

10-Day Weather Forecast

Almanac

Astronomy

May. 05, 2015 Rise Set
Actual Time
Civil Twilight
Nautical Twilight
Astronomical Twilight
Moon
Length of Visible Light
Length of Day
Tomorrow will be .
, % of the Moon is Illuminated

Today's Extremes

State Highs State Lows

Community

WunderPhotos

Upload Photos

1,818,873 photos uploaded!

WunderBlogs® & News

Nearby

Air Quality

  Air Quality AQ Index Pollutant
Not available.

Snow Depth

Station Depth Elevation

Earthquake Activity

City Distance Mag. Time & Date
Minimum magnitude displayed is 2.5.

Coastal Water Temperatures

Place Temperature

Stations

Nearby Weather Stations

Station Location Temp. Windchill Dew Point Humidity Wind Precip. Elev Updated Type